Time;durP1;ratioP1;P1;durP2;ratioP2;P2;SDS_P1;SDS_P2;PMS_P1;PMS_P2;Temp;Humidity;BMP_temperature;BMP_pressure;BME280_temperature;BME280_humidity;BME280_pressure;Samples;Min_cycle;Max_cycle;Signal;HPM_P1;HPM_P2
2021/04/07 00:00:31;;;;;;;9.75;1.80;;;1.00;99.90;;;;;;5094353;28;20085;-69
2021/04/07 00:02:57;;;;;;;15.07;1.58;;;1.00;99.90;;;;;;5092312;28;20055;-68
2021/04/07 00:05:32;;;;;;;14.90;2.08;;;0.90;99.90;;;;;;5092928;28;20043;-70
2021/04/07 00:07:58;;;;;;;11.38;1.38;;;0.90;99.90;;;;;;5089902;28;20051;-69
2021/04/07 00:10:35;;;;;;;10.35;1.52;;;0.90;99.90;;;;;;5091292;28;20054;-69
2021/04/07 00:13:01;;;;;;;12.77;1.83;;;1.00;99.90;;;;;;5089135;28;20036;-69
2021/04/07 00:15:28;;;;;;;14.73;1.60;;;0.90;99.90;;;;;;5090387;28;20043;-69
2021/04/07 00:17:54;;;;;;;6.63;2.17;;;1.00;99.90;;;;;;5089955;28;20044;-70
2021/04/07 00:20:24;;;;;;;9.82;1.35;;;0.90;99.90;;;;;;5088850;28;20047;-70
2021/04/07 00:22:50;;;;;;;10.93;1.00;;;0.90;99.90;;;;;;5094176;28;20043;-69
2021/04/07 00:25:18;;;;;;;10.60;1.45;;;0.90;99.90;;;;;;5094837;28;20406;-69
2021/04/07 00:27:52;;;;;;;9.27;1.45;;;0.90;99.90;;;;;;5089700;28;20486;-70
2021/04/07 00:30:19;;;;;;;14.45;1.48;;;0.90;99.90;;;;;;5091973;28;20388;-69
2021/04/07 00:32:45;;;;;;;8.35;1.17;;;0.90;99.90;;;;;;5096103;28;20036;-69
2021/04/07 00:35:11;;;;;;;11.57;1.52;;;0.90;99.90;;;;;;5094787;28;20406;-69
2021/04/07 00:37:37;;;;;;;17.52;1.88;;;0.90;99.90;;;;;;5096447;28;20044;-69
2021/04/07 00:40:06;;;;;;;13.60;1.77;;;0.90;99.90;;;;;;5097384;28;20074;-69
2021/04/07 00:42:33;;;;;;;9.05;0.95;;;0.90;99.90;;;;;;5097127;28;20044;-69
2021/04/07 00:44:59;;;;;;;10.82;1.45;;;0.90;99.90;;;;;;5094083;28;20040;-69
2021/04/07 00:47:25;;;;;;;11.73;1.85;;;0.70;99.90;;;;;;5092099;28;21422;-69
2021/04/07 00:49:51;;;;;;;14.68;1.20;;;0.80;99.90;;;;;;5091575;28;20051;-69
2021/04/07 00:52:17;;;;;;;13.15;1.65;;;0.80;99.90;;;;;;5091977;28;20050;-69
2021/04/07 00:54:44;;;;;;;9.93;1.13;;;0.70;99.90;;;;;;5090656;28;20448;-69
2021/04/07 00:57:10;;;;;;;11.10;1.65;;;0.80;99.90;;;;;;5094103;28;20043;-67
2021/04/07 00:59:35;;;;;;;10.57;1.38;;;0.80;99.90;;;;;;5095144;28;20044;-69
2021/04/07 01:02:02;;;;;;;11.95;1.98;;;0.80;99.90;;;;;;5094333;28;20040;-69
2021/04/07 01:04:29;;;;;;;9.80;1.42;;;0.80;99.90;;;;;;5095262;28;20039;-69
2021/04/07 01:06:56;;;;;;;13.25;1.85;;;0.80;99.90;;;;;;5093034;28;20028;-69
2021/04/07 01:09:21;;;;;;;13.27;1.58;;;0.80;99.90;;;;;;5090718;28;20085;-70
2021/04/07 01:11:47;;;;;;;15.60;1.30;;;0.70;99.90;;;;;;5088208;28;20040;-69
2021/04/07 01:14:13;;;;;;;13.63;2.08;;;0.80;99.90;;;;;;5089597;28;20688;-70
2021/04/07 01:16:40;;;;;;;12.35;0.98;;;0.80;99.90;;;;;;5091744;28;20035;-70
2021/04/07 01:19:10;;;;;;;12.95;1.25;;;0.70;99.90;;;;;;5090767;28;20048;-69
2021/04/07 01:21:36;;;;;;;12.20;1.30;;;0.80;99.90;;;;;;5092132;28;20089;-66
2021/04/07 01:24:07;;;;;;;13.73;1.60;;;0.80;99.90;;;;;;5093552;28;20192;-69
2021/04/07 01:26:33;;;;;;;10.63;1.35;;;0.80;99.90;;;;;;5093261;28;20032;-70
2021/04/07 01:28:58;;;;;;;14.50;1.40;;;0.80;99.90;;;;;;5088970;28;20712;-70
2021/04/07 01:31:24;;;;;;;6.97;0.90;;;0.80;99.90;;;;;;5093260;28;20036;-69
2021/04/07 01:33:50;;;;;;;10.93;1.30;;;0.80;99.90;;;;;;5088379;28;20470;-70
2021/04/07 01:36:16;;;;;;;7.47;0.95;;;0.80;99.90;;;;;;5092990;28;20036;-69
2021/04/07 01:38:42;;;;;;;8.10;1.65;;;0.80;99.90;;;;;;5093934;28;20073;-69
2021/04/07 01:41:09;;;;;;;9.43;1.35;;;0.80;99.90;;;;;;5089969;28;20036;-69
2021/04/07 01:43:36;;;;;;;15.40;1.60;;;0.90;99.90;;;;;;5087526;28;20048;-69
2021/04/07 01:46:02;;;;;;;11.18;0.95;;;0.90;99.90;;;;;;5090201;28;20039;-69
2021/04/07 01:48:29;;;;;;;7.93;1.00;;;0.90;99.90;;;;;;5091724;28;20096;-69
2021/04/07 01:50:54;;;;;;;8.05;1.23;;;1.00;99.90;;;;;;5094369;28;20031;-70
2021/04/07 01:53:20;;;;;;;11.40;0.82;;;1.10;99.90;;;;;;5092061;28;20472;-69
2021/04/07 01:55:47;;;;;;;14.55;0.93;;;1.10;99.90;;;;;;5092218;28;20114;-70
2021/04/07 01:58:13;;;;;;;6.25;1.25;;;1.10;99.90;;;;;;5092375;28;20399;-69
2021/04/07 02:00:39;;;;;;;8.75;1.05;;;1.20;99.90;;;;;;5093347;28;20075;-69
2021/04/07 02:03:06;;;;;;;11.57;1.20;;;1.20;99.90;;;;;;5089971;28;20059;-70
2021/04/07 02:05:32;;;;;;;10.98;1.23;;;1.20;99.90;;;;;;5091601;28;20046;-69
2021/04/07 02:07:58;;;;;;;13.15;1.08;;;1.30;99.90;;;;;;5091519;28;20413;-70
2021/04/07 02:10:24;;;;;;;10.20;1.05;;;1.30;99.90;;;;;;5089161;28;20027;-70
2021/04/07 02:12:54;;;;;;;13.73;1.30;;;1.30;99.90;;;;;;5089540;28;20414;-69
2021/04/07 02:15:22;;;;;;;8.68;1.02;;;1.30;99.90;;;;;;5090313;28;20046;-69
2021/04/07 02:17:47;;;;;;;11.95;1.05;;;1.40;99.90;;;;;;5091502;28;20101;-69
2021/04/07 02:20:15;;;;;;;10.18;0.90;;;1.30;99.90;;;;;;5089901;28;20023;-69
2021/04/07 02:22:41;;;;;;;12.85;1.00;;;1.40;99.90;;;;;;5090851;28;20036;-69
2021/04/07 02:25:09;;;;;;;8.23;1.13;;;1.30;99.90;;;;;;5091306;28;20056;-69
2021/04/07 02:27:36;;;;;;;7.25;0.70;;;1.30;99.90;;;;;;5086166;28;20036;-69
2021/04/07 02:30:05;;;;;;;10.73;0.70;;;1.30;99.90;;;;;;5087894;28;20063;-69
2021/04/07 02:32:31;;;;;;;6.35;0.52;;;1.30;99.90;;;;;;5087686;28;20044;-69
2021/04/07 02:34:57;;;;;;;5.53;0.40;;;1.30;99.90;;;;;;5090465;28;20055;-69
2021/04/07 02:37:23;;;;;;;7.25;0.63;;;1.30;99.90;;;;;;5091995;28;20506;-69
2021/04/07 02:39:49;;;;;;;8.23;0.45;;;1.30;99.90;;;;;;5091265;28;20074;-69
2021/04/07 02:42:18;;;;;;;5.75;0.60;;;1.40;99.90;;;;;;5089272;28;20036;-69
2021/04/07 02:44:44;;;;;;;6.57;0.70;;;1.40;99.90;;;;;;5087506;28;20040;-69
2021/04/07 02:47:10;;;;;;;5.57;0.50;;;1.40;99.90;;;;;;5089085;28;20035;-70
2021/04/07 02:49:36;;;;;;;3.97;0.60;;;1.40;99.90;;;;;;5091827;28;20043;-69
2021/04/07 02:52:02;;;;;;;9.63;0.70;;;1.40;99.90;;;;;;5092226;28;20367;-70
2021/04/07 02:54:28;;;;;;;6.80;0.50;;;1.40;99.90;;;;;;5089122;28;20040;-69
2021/04/07 02:56:55;;;;;;;7.30;0.70;;;1.40;99.90;;;;;;5083647;28;20040;-69
2021/04/07 02:59:21;;;;;;;4.80;0.57;;;1.40;99.90;;;;;;5085654;28;20120;-69
2021/04/07 03:01:48;;;;;;;5.18;0.63;;;1.60;99.90;;;;;;5082366;28;20044;-69
2021/04/07 03:04:14;;;;;;;4.28;0.55;;;1.50;99.90;;;;;;5080978;28;20043;-70
2021/04/07 03:06:43;;;;;;;5.53;0.60;;;1.50;99.90;;;;;;5080894;28;20120;-70
2021/04/07 03:09:12;;;;;;;6.78;0.50;;;1.50;99.90;;;;;;5078303;28;20040;-68
2021/04/07 03:11:38;;;;;;;5.60;0.40;;;1.50;99.90;;;;;;5082297;28;20052;-71
2021/04/07 03:14:05;;;;;;;5.60;0.50;;;1.60;99.90;;;;;;5081174;28;21131;-71
2021/04/07 03:16:32;;;;;;;6.00;0.35;;;1.50;99.90;;;;;;5083189;28;20096;-71
2021/04/07 03:18:59;;;;;;;5.35;0.30;;;1.50;99.90;;;;;;5086902;28;20167;-71
2021/04/07 03:21:25;;;;;;;3.22;0.30;;;1.50;99.90;;;;;;5084547;28;20521;-69
2021/04/07 03:23:51;;;;;;;4.53;0.57;;;1.50;99.90;;;;;;5083565;28;20051;-70
2021/04/07 03:26:17;;;;;;;3.10;0.38;;;1.50;99.90;;;;;;5087230;28;20028;-71
2021/04/07 03:28:42;;;;;;;1.95;0.73;;;1.50;99.90;;;;;;5084611;28;20047;-70
2021/04/07 03:31:08;;;;;;;4.00;0.40;;;1.50;99.90;;;;;;5081915;28;20077;-70
2021/04/07 03:33:35;;;;;;;4.55;0.30;;;1.50;99.90;;;;;;5085425;28;20040;-70
2021/04/07 03:36:04;;;;;;;3.63;0.93;;;1.50;99.90;;;;;;5087766;28;20037;-70
2021/04/07 03:38:30;;;;;;;3.58;0.22;;;1.50;99.90;;;;;;5087985;28;20692;-70
2021/04/07 03:40:55;;;;;;;3.10;0.25;;;1.50;99.90;;;;;;5085466;28;20051;-70
2021/04/07 03:43:23;;;;;;;5.22;0.30;;;1.50;99.90;;;;;;5088398;28;20467;-70
2021/04/07 03:45:50;;;;;;;5.97;0.30;;;1.50;99.90;;;;;;5089124;28;20050;-69
2021/04/07 03:48:19;;;;;;;3.53;0.30;;;1.60;99.90;;;;;;5092013;28;20039;-71
2021/04/07 03:50:46;;;;;;;4.03;0.30;;;1.60;99.90;;;;;;5089075;28;20039;-71
2021/04/07 03:53:13;;;;;;;4.28;0.40;;;1.50;99.90;;;;;;5090408;28;20090;-71
2021/04/07 03:55:40;;;;;;;5.60;0.30;;;1.60;99.90;;;;;;5089020;28;20056;-71
2021/04/07 03:58:07;;;;;;;2.85;0.28;;;1.50;99.90;;;;;;5087607;28;20040;-70
2021/04/07 04:00:37;;;;;;;3.70;0.32;;;1.60;99.90;;;;;;5087632;28;20562;-69
2021/04/07 04:03:03;;;;;;;2.75;0.30;;;1.50;99.90;;;;;;5089897;28;20036;-69
2021/04/07 04:05:28;;;;;;;4.35;0.85;;;1.50;99.90;;;;;;5090276;28;20141;-70
2021/04/07 04:07:54;;;;;;;3.08;0.40;;;1.60;99.90;;;;;;5092049;28;20651;-70
2021/04/07 04:10:21;;;;;;;3.88;0.32;;;1.50;99.90;;;;;;5087472;28;20055;-70
2021/04/07 04:12:47;;;;;;;1.23;0.20;;;1.50;99.90;;;;;;5082211;28;20071;-70
2021/04/07 04:15:14;;;;;;;7.38;0.40;;;1.50;99.90;;;;;;5083115;28;20044;-70
2021/04/07 04:17:41;;;;;;;4.15;0.50;;;1.60;99.90;;;;;;5085581;28;20071;-70
2021/04/07 04:20:09;;;;;;;4.13;0.30;;;1.60;99.90;;;;;;5086511;28;20112;-70
2021/04/07 04:22:34;;;;;;;1.45;0.28;;;1.60;99.90;;;;;;5086284;28;20051;-70
2021/04/07 04:25:01;;;;;;;3.45;0.30;;;1.50;99.90;;;;;;5086271;28;20043;-70
2021/04/07 04:27:27;;;;;;;2.15;0.47;;;1.50;99.90;;;;;;5081525;28;20035;-70
2021/04/07 04:29:52;;;;;;;1.05;0.20;;;1.50;99.90;;;;;;5084342;28;20047;-70
2021/04/07 04:32:18;;;;;;;1.10;0.20;;;1.50;99.90;;;;;;5082252;28;20044;-71
2021/04/07 04:34:44;;;;;;;1.27;0.20;;;1.60;99.90;;;;;;5083119;28;20179;-68
2021/04/07 04:37:09;;;;;;;0.60;0.10;;;1.50;99.90;;;;;;5084557;28;20482;-71
2021/04/07 04:39:37;;;;;;;1.92;0.20;;;1.50;99.90;;;;;;5088511;28;20057;-71
2021/04/07 04:42:04;;;;;;;0.82;0.20;;;1.60;99.90;;;;;;5088863;28;20040;-71
2021/04/07 04:44:29;;;;;;;3.25;0.17;;;1.50;99.90;;;;;;5088169;28;20054;-71
2021/04/07 04:46:55;;;;;;;2.28;0.20;;;1.50;99.90;;;;;;5085883;28;20032;-71
2021/04/07 04:49:21;;;;;;;1.08;0.20;;;1.60;99.90;;;;;;5088113;28;20106;-71
2021/04/07 04:51:48;;;;;;;0.90;0.20;;;1.60;99.90;;;;;;5083841;28;20036;-71
2021/04/07 04:54:14;;;;;;;1.27;0.10;;;1.60;99.90;;;;;;5087328;28;20036;-71
2021/04/07 04:56:40;;;;;;;1.55;0.20;;;1.60;99.90;;;;;;5087715;28;20101;-71
2021/04/07 04:59:07;;;;;;;1.02;0.20;;;1.60;99.90;;;;;;5086418;28;20047;-71
2021/04/07 05:01:34;;;;;;;2.08;0.30;;;1.60;99.90;;;;;;5088755;28;20037;-71
2021/04/07 05:04:04;;;;;;;2.45;0.40;;;1.60;99.90;;;;;;5086405;28;20048;-71
2021/04/07 05:06:32;;;;;;;1.83;0.60;;;1.60;99.90;;;;;;5084750;28;20107;-70
2021/04/07 05:08:58;;;;;;;1.77;0.40;;;1.60;99.90;;;;;;5089791;28;20036;-71
2021/04/07 05:11:23;;;;;;;2.00;0.45;;;1.70;99.90;;;;;;5091271;28;20035;-71
2021/04/07 05:13:49;;;;;;;4.40;0.40;;;1.70;99.90;;;;;;5090168;28;20036;-71
2021/04/07 05:16:15;;;;;;;4.93;0.50;;;1.70;99.90;;;;;;5090316;28;20043;-71
2021/04/07 05:18:40;;;;;;;1.83;0.40;;;1.60;99.90;;;;;;5088290;28;20040;-71
2021/04/07 05:21:06;;;;;;;4.50;0.50;;;1.70;99.90;;;;;;5088950;28;20089;-71
2021/04/07 05:23:32;;;;;;;3.85;0.60;;;1.70;99.90;;;;;;5089495;28;20521;-71
2021/04/07 05:25:57;;;;;;;3.88;0.60;;;1.80;99.90;;;;;;5091012;28;20478;-71
2021/04/07 05:28:23;;;;;;;6.57;0.63;;;1.70;99.90;;;;;;5089144;28;20039;-70
2021/04/07 05:31:04;;;;;;;2.70;0.50;;;1.80;99.90;;;;;;5089584;28;20051;-70
2021/04/07 05:33:32;;;;;;;3.22;0.95;;;1.80;99.90;;;;;;5088740;28;20047;-70
2021/04/07 05:35:59;;;;;;;3.47;0.50;;;1.90;99.90;;;;;;5085959;28;20048;-70
2021/04/07 05:38:25;;;;;;;3.78;0.55;;;1.90;99.90;;;;;;5088585;28;20040;-70
2021/04/07 05:40:52;;;;;;;2.70;0.60;;;1.90;99.90;;;;;;5088683;28;20490;-70
2021/04/07 05:43:19;;;;;;;3.40;0.50;;;1.90;99.90;;;;;;5088891;28;20122;-70
2021/04/07 05:45:45;;;;;;;3.45;0.50;;;1.90;99.90;;;;;;5086759;28;20032;-70
2021/04/07 05:48:11;;;;;;;3.97;0.73;;;2.00;99.90;;;;;;5087393;28;20028;-70
2021/04/07 05:50:42;;;;;;;4.38;0.50;;;2.10;99.90;;;;;;5087348;28;20073;-70
2021/04/07 05:53:08;;;;;;;6.10;0.82;;;2.00;99.90;;;;;;5087799;28;20050;-70
2021/04/07 05:55:35;;;;;;;7.20;1.23;;;2.10;99.90;;;;;;5088039;28;20106;-70
2021/04/07 05:58:07;;;;;;;4.97;0.85;;;2.20;99.90;;;;;;5089131;28;20066;-70
2021/04/07 06:00:38;;;;;;;3.92;1.00;;;2.10;99.90;;;;;;5088140;28;20044;-70
2021/04/07 06:03:05;;;;;;;4.60;0.88;;;2.20;99.90;;;;;;5088851;28;20090;-70
2021/04/07 06:05:31;;;;;;;5.97;0.85;;;2.20;99.90;;;;;;5087674;28;20109;-70
2021/04/07 06:07:58;;;;;;;9.73;1.25;;;2.30;99.90;;;;;;5089311;28;20526;-70
2021/04/07 06:10:25;;;;;;;8.50;1.25;;;2.30;99.90;;;;;;5088630;28;20478;-70
2021/04/07 06:12:51;;;;;;;4.57;1.38;;;2.30;99.90;;;;;;5089112;28;20482;-70
2021/04/07 06:15:17;;;;;;;3.88;0.82;;;2.40;99.90;;;;;;5087163;28;20126;-70
2021/04/07 06:17:53;;;;;;;6.32;2.08;;;2.50;99.90;;;;;;5089591;28;20032;-70
2021/04/07 06:20:19;;;;;;;7.80;1.00;;;2.60;99.90;;;;;;5087585;28;20073;-70
2021/04/07 06:22:45;;;;;;;8.13;0.68;;;2.80;99.90;;;;;;5089197;28;20028;-70
2021/04/07 06:25:12;;;;;;;4.95;0.80;;;3.20;99.90;;;;;;5087865;28;20085;-70
2021/04/07 06:27:38;;;;;;;6.47;0.63;;;3.70;99.90;;;;;;5083691;28;20050;-70
2021/04/07 06:30:04;;;;;;;2.97;0.60;;;4.20;99.90;;;;;;5086065;28;20397;-71
2021/04/07 06:32:31;;;;;;;4.10;0.68;;;5.10;99.90;;;;;;5088646;28;20036;-71
2021/04/07 06:34:57;;;;;;;4.93;0.35;;;5.90;99.90;;;;;;5088580;28;20078;-71
2021/04/07 06:37:23;;;;;;;1.52;0.30;;;6.60;99.60;;;;;;5085680;28;20161;-71
2021/04/07 06:39:49;;;;;;;3.63;0.60;;;7.20;98.40;;;;;;5089251;28;20036;-71
2021/04/07 06:42:15;;;;;;;4.22;0.43;;;7.20;97.00;;;;;;5085745;28;20067;-71
2021/04/07 06:44:42;;;;;;;8.00;0.80;;;6.70;96.60;;;;;;5087222;28;20063;-70
2021/04/07 06:47:08;;;;;;;5.72;0.60;;;6.80;97.20;;;;;;5086511;28;20524;-71
2021/04/07 06:49:34;;;;;;;7.18;1.10;;;6.90;97.00;;;;;;5086451;28;20110;-71
2021/04/07 06:52:05;;;;;;;3.28;0.50;;;7.40;97.10;;;;;;5088141;28;20064;-71
2021/04/07 06:54:33;;;;;;;5.72;0.80;;;7.50;96.20;;;;;;5088616;28;20051;-71
2021/04/07 06:56:59;;;;;;;2.65;0.50;;;7.40;96.00;;;;;;5088946;28;20036;-71
2021/04/07 06:59:27;;;;;;;4.45;0.60;;;7.70;95.70;;;;;;5088928;28;20042;-71
2021/04/07 07:01:53;;;;;;;7.07;0.85;;;8.10;95.60;;;;;;5087129;28;20547;-71
2021/04/07 07:04:19;;;;;;;5.65;0.73;;;8.80;95.10;;;;;;5088012;28;20069;-71
2021/04/07 07:06:46;;;;;;;5.28;0.52;;;9.60;94.00;;;;;;5085790;28;20131;-71
2021/04/07 07:09:19;;;;;;;5.68;0.60;;;10.00;93.40;;;;;;5086070;28;20049;-71
2021/04/07 07:11:47;;;;;;;4.20;1.15;;;10.40;92.50;;;;;;5086897;28;20040;-71
2021/04/07 07:14:17;;;;;;;3.72;0.47;;;10.60;91.80;;;;;;5086567;28;20054;-71
2021/04/07 07:16:47;;;;;;;8.23;0.90;;;10.50;91.80;;;;;;5088689;28;20119;-71
2021/04/07 07:19:30;;;;;;;6.88;1.52;;;10.50;91.40;;;;;;5090190;28;20056;-71
2021/04/07 07:21:58;;;;;;;7.82;1.40;;;10.40;90.90;;;;;;5090144;28;20821;-71
2021/04/07 07:24:38;;;;;;;12.25;1.88;;;10.10;91.80;;;;;;5091477;28;20043;-71
2021/04/07 07:27:06;;;;;;;8.30;1.58;;;10.00;92.40;;;;;;5090606;28;20040;-71
2021/04/07 07:29:36;;;;;;;9.48;1.73;;;10.00;91.90;;;;;;5090512;28;20036;-71
2021/04/07 07:32:16;;;;;;;12.23;1.83;;;10.00;91.40;;;;;;5091466;28;20036;-71
2021/04/07 07:34:42;;;;;;;10.38;2.08;;;10.00;92.10;;;;;;5091274;28;20032;-71
2021/04/07 07:37:07;;;;;;;11.77;2.40;;;10.00;91.70;;;;;;5091702;28;20047;-71
2021/04/07 07:39:35;;;;;;;11.77;2.15;;;10.10;91.30;;;;;;5091457;28;20040;-71
2021/04/07 07:42:05;;;;;;;10.80;2.03;;;10.20;91.50;;;;;;5090748;28;20036;-72
2021/04/07 07:44:34;;;;;;;8.32;1.52;;;10.00;91.40;;;;;;5089946;28;20173;-72
2021/04/07 07:47:16;;;;;;;7.90;1.77;;;9.80;92.00;;;;;;5090876;28;20485;-72
2021/04/07 07:49:57;;;;;;;14.75;2.40;;;9.50;92.00;;;;;;5091619;28;20028;-72
2021/04/07 07:52:36;;;;;;;16.67;2.55;;;9.20;91.90;;;;;;5091192;28;20052;-72
2021/04/07 07:55:17;;;;;;;13.95;2.33;;;8.80;92.30;;;;;;5089648;28;20036;-72
2021/04/07 07:57:56;;;;;;;13.13;1.77;;;8.50;93.50;;;;;;5091819;28;20146;-72
2021/04/07 08:00:26;;;;;;;10.25;1.73;;;8.20;93.60;;;;;;5089564;28;20044;-71
2021/04/07 08:02:53;;;;;;;9.73;1.55;;;7.90;94.00;;;;;;5087521;28;20531;-72
2021/04/07 08:05:20;;;;;;;7.38;1.35;;;7.70;95.30;;;;;;5089410;28;20044;-71
2021/04/07 08:07:46;;;;;;;6.50;0.70;;;7.40;95.60;;;;;;5091074;28;20052;-71
2021/04/07 08:10:13;;;;;;;8.77;1.08;;;7.10;95.90;;;;;;5091100;28;20038;-71
2021/04/07 08:12:41;;;;;;;7.53;1.23;;;6.80;96.20;;;;;;5091135;28;20036;-71
2021/04/07 08:15:08;;;;;;;5.50;0.88;;;6.60;96.80;;;;;;5090611;28;20047;-71
2021/04/07 08:17:35;;;;;;;8.77;0.93;;;6.60;97.50;;;;;;5090556;28;20118;-71
2021/04/07 08:20:03;;;;;;;5.75;0.52;;;6.80;97.70;;;;;;5090405;28;20040;-71
2021/04/07 08:22:29;;;;;;;4.93;0.95;;;6.90;97.90;;;;;;5090704;28;20490;-71
2021/04/07 08:24:58;;;;;;;6.50;0.80;;;7.10;97.60;;;;;;5090182;28;20032;-71
2021/04/07 08:27:25;;;;;;;3.60;0.82;;;7.40;97.50;;;;;;5086641;28;20067;-72
2021/04/07 08:29:51;;;;;;;6.53;0.60;;;7.60;97.40;;;;;;5087257;28;20494;-72
2021/04/07 08:32:21;;;;;;;5.85;0.88;;;7.70;97.50;;;;;;5087085;28;20032;-72
2021/04/07 08:34:48;;;;;;;6.10;0.77;;;7.50;97.10;;;;;;5089221;28;20478;-72
2021/04/07 08:37:25;;;;;;;9.30;1.23;;;7.50;97.10;;;;;;5090674;28;20163;-72
2021/04/07 08:39:50;;;;;;;15.07;2.08;;;7.40;97.10;;;;;;5088236;28;20109;-72
2021/04/07 08:42:16;;;;;;;10.95;1.67;;;7.40;97.30;;;;;;5086565;28;20082;-72
2021/04/07 08:44:47;;;;;;;12.50;2.45;;;7.30;97.60;;;;;;5090024;28;20156;-72
2021/04/07 08:47:31;;;;;;;10.73;1.45;;;7.10;98.30;;;;;;5088973;28;20036;-72
2021/04/07 08:50:03;;;;;;;17.30;2.13;;;7.00;98.30;;;;;;5089639;28;20040;-72
2021/04/07 08:52:29;;;;;;;10.95;2.05;;;6.90;98.90;;;;;;5090000;28;20070;-72
2021/04/07 08:54:59;;;;;;;11.68;1.95;;;6.90;99.10;;;;;;5089787;28;20044;-72
2021/04/07 08:57:33;;;;;;;15.90;2.13;;;6.70;98.90;;;;;;5089281;28;20032;-72
2021/04/07 09:00:01;;;;;;;22.50;3.08;;;6.70;99.40;;;;;;5088313;28;20071;-72
2021/04/07 09:02:27;;;;;;;23.67;4.00;;;6.60;99.40;;;;;;5087136;28;20072;-72
2021/04/07 09:05:05;;;;;;;18.60;3.05;;;6.70;99.90;;;;;;5089551;28;20056;-72
2021/04/07 09:07:45;;;;;;;24.00;3.28;;;6.80;99.30;;;;;;5088748;28;20044;-72
2021/04/07 09:10:11;;;;;;;22.27;3.45;;;6.90;99.40;;;;;;5087080;28;20054;-72
2021/04/07 09:12:39;;;;;;;21.02;3.25;;;7.10;99.60;;;;;;5087637;28;20040;-72
2021/04/07 09:15:30;;;;;;;17.50;2.88;;;7.20;98.90;;;;;;5084064;28;20063;-72
2021/04/07 09:17:58;;;;;;;21.08;3.65;;;7.30;97.70;;;;;;5082721;28;20044;-72
2021/04/07 09:20:46;;;;;;;18.70;3.58;;;7.30;97.00;;;;;;5084569;28;20036;-72
2021/04/07 09:23:16;;;;;;;23.20;3.47;;;7.40;97.80;;;;;;5081203;28;20071;-72
2021/04/07 09:25:50;;;;;;;20.25;4.00;;;7.50;97.70;;;;;;5102689;28;20041;-72
2021/04/07 09:28:17;;;;;;;27.58;3.45;;;7.50;97.60;;;;;;5083840;28;20047;-72
2021/04/07 09:30:48;;;;;;;15.38;3.53;;;7.50;97.10;;;;;;5084979;28;20040;-72
2021/04/07 09:33:15;;;;;;;24.52;3.63;;;7.50;96.70;;;;;;5083469;28;20084;-72
2021/04/07 09:35:56;;;;;;;27.08;4.80;;;7.40;96.70;;;;;;5084309;28;20363;-72
2021/04/07 09:38:21;;;;;;;17.25;3.17;;;7.40;96.60;;;;;;5083305;28;20077;-72
2021/04/07 09:40:47;;;;;;;20.27;3.85;;;7.40;96.20;;;;;;5083399;28;20173;-72
2021/04/07 09:43:13;;;;;;;18.33;3.70;;;7.50;96.40;;;;;;5087462;28;20032;-72
2021/04/07 09:45:39;;;;;;;20.70;3.40;;;7.50;96.20;;;;;;5087588;28;20051;-72
2021/04/07 09:48:05;;;;;;;19.80;4.38;;;7.40;96.40;;;;;;5087856;28;20437;-72
2021/04/07 09:50:31;;;;;;;19.58;2.90;;;7.40;96.30;;;;;;5089743;28;20494;-72
2021/04/07 09:52:58;;;;;;;19.20;3.20;;;7.50;96.50;;;;;;5088806;28;20044;-72
2021/04/07 09:55:24;;;;;;;19.20;2.97;;;7.70;97.30;;;;;;5089557;28;20115;-72
2021/04/07 09:58:00;;;;;;;19.67;2.80;;;8.10;97.00;;;;;;5089167;28;20047;-72
2021/04/07 10:00:36;;;;;;;19.45;3.03;;;8.30;96.10;;;;;;5088221;28;20374;-72
2021/04/07 10:03:02;;;;;;;18.27;3.15;;;8.30;95.30;;;;;;5083782;28;20647;-72
2021/04/07 10:05:32;;;;;;;16.95;3.20;;;8.10;94.30;;;;;;5083131;28;20105;-72
2021/04/07 10:08:15;;;;;;;21.90;3.92;;;7.80;94.80;;;;;;5083512;28;20047;-72
2021/04/07 10:10:41;;;;;;;24.75;3.80;;;7.40;95.40;;;;;;5082195;28;20036;-72
2021/04/07 10:13:08;;;;;;;20.77;3.45;;;7.40;96.50;;;;;;5083635;28;20047;-72
2021/04/07 10:15:37;;;;;;;17.92;2.78;;;7.40;96.40;;;;;;5082027;28;20044;-72
2021/04/07 10:18:08;;;;;;;10.63;2.05;;;7.50;98.40;;;;;;5082051;28;20482;-72
2021/04/07 10:20:35;;;;;;;12.05;2.17;;;7.80;96.90;;;;;;5081578;28;20036;-72
2021/04/07 10:23:07;;;;;;;13.70;2.30;;;7.90;96.10;;;;;;5081844;28;20046;-72
2021/04/07 10:25:33;;;;;;;13.48;2.53;;;8.10;94.50;;;;;;5081366;28;20036;-72
2021/04/07 10:27:59;;;;;;;13.73;2.70;;;8.10;94.30;;;;;;5081481;28;20398;-72
2021/04/07 10:30:26;;;;;;;16.95;2.78;;;8.20;94.80;;;;;;5086484;28;20028;-72
2021/04/07 10:32:55;;;;;;;13.05;2.30;;;8.30;93.50;;;;;;5083589;28;20454;-72
2021/04/07 10:35:26;;;;;;;12.48;2.38;;;8.30;93.80;;;;;;5080405;28;20098;-73
2021/04/07 10:37:56;;;;;;;11.27;2.33;;;8.00;93.30;;;;;;5082892;28;20032;-73
2021/04/07 10:40:24;;;;;;;12.93;2.47;;;7.90;94.50;;;;;;5083581;28;20044;-73
2021/04/07 10:42:50;;;;;;;12.48;2.42;;;7.90;95.80;;;;;;5084912;28;20027;-72
2021/04/07 10:45:18;;;;;;;22.25;3.60;;;8.00;95.90;;;;;;5084916;28;20377;-72
2021/04/07 10:47:45;;;;;;;21.65;2.95;;;8.30;95.00;;;;;;5084342;28;20047;-73
2021/04/07 10:50:12;;;;;;;13.35;2.33;;;8.40;95.50;;;;;;5085512;28;20040;-73
2021/04/07 10:52:40;;;;;;;9.18;2.17;;;8.10;94.30;;;;;;5080120;28;20035;-72
2021/04/07 10:55:25;;;;;;;18.73;4.00;;;7.80;94.50;;;;;;5083522;28;20486;-72
2021/04/07 10:57:56;;;;;;;12.45;2.08;;;7.50;94.70;;;;;;5085212;28;21517;-72
2021/04/07 11:00:31;;;;;;;18.45;3.83;;;7.40;95.70;;;;;;5084608;28;20032;-72
2021/04/07 11:02:58;;;;;;;23.60;3.43;;;7.30;95.40;;;;;;5082790;28;20032;-72
2021/04/07 11:05:26;;;;;;;17.52;2.40;;;7.20;95.30;;;;;;5082938;28;20038;-72
2021/04/07 11:08:04;;;;;;;13.02;2.55;;;6.90;95.10;;;;;;5084170;28;20062;-72
2021/04/07 11:10:48;;;;;;;11.68;1.73;;;6.80;95.80;;;;;;5086513;28;20090;-72
2021/04/07 11:13:15;;;;;;;9.00;1.38;;;6.40;97.30;;;;;;5087508;28;20039;-72
2021/04/07 11:15:41;;;;;;;7.75;1.38;;;6.30;97.30;;;;;;5087776;28;20477;-72
2021/04/07 11:18:08;;;;;;;10.30;1.10;;;6.10;97.50;;;;;;5086084;28;20062;-72
2021/04/07 11:20:34;;;;;;;12.02;2.15;;;6.10;97.80;;;;;;5085484;28;20042;-72
2021/04/07 11:23:01;;;;;;;9.48;1.23;;;6.30;98.50;;;;;;5087712;28;20062;-72
2021/04/07 11:25:27;;;;;;;11.50;1.58;;;6.40;97.80;;;;;;5087016;28;20043;-73
2021/04/07 11:27:56;;;;;;;13.27;1.90;;;6.60;98.90;;;;;;5088122;28;20067;-73
2021/04/07 11:30:23;;;;;;;9.80;1.17;;;6.80;99.10;;;;;;5086796;28;21714;-73
2021/04/07 11:32:54;;;;;;;7.68;1.05;;;6.60;97.20;;;;;;5084784;28;20036;-72
2021/04/07 11:37:55;;;;;;;9.05;1.42;;;6.40;97.70;;;;;;5080726;28;20048;-72
2021/04/07 11:43:14;;;;;;;15.85;1.17;;;6.40;97.90;;;;;;5080609;28;20040;-72
2021/04/07 11:45:39;;;;;;;8.07;1.73;;;6.50;97.60;;;;;;5081837;28;20044;-72
2021/04/07 11:48:08;;;;;;;12.55;1.15;;;6.60;97.50;;;;;;5080330;28;20097;-72
2021/04/07 11:50:34;;;;;;;13.50;1.55;;;6.80;98.30;;;;;;5079423;28;20044;-73
2021/04/07 11:53:00;;;;;;;11.55;1.45;;;6.90;97.50;;;;;;5083727;28;20602;-73
2021/04/07 11:55:25;;;;;;;12.45;2.20;;;7.00;97.30;;;;;;5086590;28;20070;-72
2021/04/07 11:57:51;;;;;;;14.45;2.67;;;7.10;97.70;;;;;;5085342;28;20040;-73
2021/04/07 12:00:17;;;;;;;11.18;1.90;;;7.20;96.70;;;;;;5086654;28;20378;-73
2021/04/07 12:02:45;;;;;;;14.07;1.75;;;7.40;96.80;;;;;;5088419;28;20101;-73
2021/04/07 12:05:13;;;;;;;12.07;2.35;;;7.50;96.80;;;;;;5086249;28;20051;-72
2021/04/07 12:07:39;;;;;;;16.02;3.55;;;7.50;97.10;;;;;;5084003;28;20049;-73
2021/04/07 12:10:06;;;;;;;9.93;1.90;;;7.40;94.30;;;;;;5085169;28;20611;-73
2021/04/07 12:12:32;;;;;;;9.35;2.17;;;7.30;94.10;;;;;;5084379;28;20035;-73
2021/04/07 12:14:57;;;;;;;14.93;2.65;;;7.20;93.20;;;;;;5084125;28;21090;-73
2021/04/07 12:17:23;;;;;;;18.02;2.78;;;7.00;93.90;;;;;;5082170;28;20044;-73
2021/04/07 12:19:49;;;;;;;13.13;2.78;;;6.80;96.00;;;;;;5086925;28;20028;-73
2021/04/07 12:22:16;;;;;;;10.38;2.03;;;6.60;95.60;;;;;;5088450;28;20155;-73
2021/04/07 12:24:42;;;;;;;11.38;1.83;;;6.40;96.50;;;;;;5089016;28;20042;-72
2021/04/07 12:27:08;;;;;;;9.82;1.30;;;6.10;96.20;;;;;;5089612;28;20089;-72
2021/04/07 12:29:34;;;;;;;11.25;1.67;;;6.10;97.00;;;;;;5090201;28;20075;-72
2021/04/07 12:32:01;;;;;;;9.88;1.23;;;6.20;96.60;;;;;;5089369;28;20480;-72
2021/04/07 12:34:27;;;;;;;11.88;2.05;;;6.30;96.20;;;;;;5085892;28;20474;-72
2021/04/07 12:36:53;;;;;;;9.63;1.83;;;6.50;96.30;;;;;;5083047;28;20046;-72
2021/04/07 12:39:19;;;;;;;12.75;3.40;;;6.70;95.90;;;;;;5079527;28;20032;-72
2021/04/07 12:41:54;;;;;;;10.65;1.85;;;7.00;96.30;;;;;;5084442;28;20459;-72
2021/04/07 12:44:20;;;;;;;14.37;1.77;;;7.10;94.90;;;;;;5083456;28;20048;-72
2021/04/07 12:46:46;;;;;;;12.75;1.67;;;7.30;95.20;;;;;;5084329;28;20040;-72
2021/04/07 12:49:12;;;;;;;10.38;1.90;;;7.30;94.30;;;;;;5082027;28;20131;-72
2021/04/07 12:51:38;;;;;;;10.70;1.10;;;7.30;95.30;;;;;;5083906;28;20040;-72
2021/04/07 12:54:04;;;;;;;10.65;1.60;;;7.10;94.40;;;;;;5083358;28;20040;-72
2021/04/07 12:56:31;;;;;;;11.32;1.60;;;7.10;93.50;;;;;;5083524;28;20612;-72
2021/04/07 12:58:57;;;;;;;13.02;1.88;;;7.00;93.80;;;;;;5083600;28;20032;-72
2021/04/07 13:01:23;;;;;;;9.75;1.60;;;6.90;93.50;;;;;;5088116;28;20074;-72